Time;durP1;ratioP1;P1;durP2;ratioP2;P2;SDS_P1;SDS_P2;PMS_P1;PMS_P2;Temp;Humidity;BMP_temperature;BMP_pressure;BME280_temperature;BME280_humidity;BME280_pressure;Samples;Min_cycle;Max_cycle;Signal;HPM_P1;HPM_P2
2021/06/25 00:01:28;;;;;;;0.40;0.40;;;;;;;;;;5074596;28;20355;-47
2021/06/25 00:03:54;;;;;;;0.50;0.50;;;;;;;;;;5074561;28;20428;-48
2021/06/25 00:06:20;;;;;;;0.50;0.50;;;;;;;;;;5075603;28;20040;-47
2021/06/25 00:08:46;;;;;;;0.82;0.60;;;;;;;;;;5075282;28;20047;-47
2021/06/25 00:11:12;;;;;;;2.05;0.68;;;;;;;;;;5074244;28;20455;-47
2021/06/25 00:13:38;;;;;;;0.82;0.60;;;;;;;;;;5075060;28;20127;-47
2021/06/25 00:16:04;;;;;;;1.92;0.65;;;;;;;;;;5075046;28;20039;-47
2021/06/25 00:18:30;;;;;;;0.60;0.60;;;;;;;;;;5075113;28;20021;-47
2021/06/25 00:20:56;;;;;;;9.80;1.00;;;;;;;;;;5073838;28;20455;-47
2021/06/25 00:23:22;;;;;;;0.70;0.70;;;;;;;;;;5075000;28;20151;-47
2021/06/25 00:25:48;;;;;;;2.47;0.93;;;;;;;;;;5074996;28;20089;-47
2021/06/25 00:28:14;;;;;;;4.75;0.70;;;;;;;;;;5074644;28;20028;-47
2021/06/25 00:30:42;;;;;;;0.60;0.60;;;;;;;;;;5073692;28;20021;-47
2021/06/25 00:33:08;;;;;;;0.57;0.55;;;;;;;;;;5074479;28;20036;-47
2021/06/25 00:35:34;;;;;;;0.50;0.50;;;;;;;;;;5074520;28;20024;-47
2021/06/25 00:38:00;;;;;;;3.83;0.65;;;;;;;;;;5074545;28;20447;-47
2021/06/25 00:40:26;;;;;;;0.73;0.73;;;;;;;;;;5073686;28;20029;-47
2021/06/25 00:42:52;;;;;;;1.10;0.75;;;;;;;;;;5074846;28;20120;-47
2021/06/25 00:45:20;;;;;;;0.60;0.60;;;;;;;;;;5074342;28;20104;-47
2021/06/25 00:47:47;;;;;;;0.60;0.60;;;;;;;;;;5074461;28;20024;-47
2021/06/25 00:50:14;;;;;;;0.70;0.70;;;;;;;;;;5073998;28;20104;-47
2021/06/25 00:52:40;;;;;;;0.60;0.60;;;;;;;;;;5074617;28;20027;-47
2021/06/25 00:55:07;;;;;;;2.75;0.60;;;;;;;;;;5074317;28;20028;-47
2021/06/25 00:57:33;;;;;;;0.50;0.50;;;;;;;;;;5074326;28;20064;-47
2021/06/25 00:59:59;;;;;;;0.60;0.60;;;;;;;;;;5073877;28;20063;-47
2021/06/25 01:02:25;;;;;;;0.93;0.70;;;;;;;;;;5073109;28;20067;-47
2021/06/25 01:04:51;;;;;;;0.60;0.60;;;;;;;;;;5074341;28;20016;-47
2021/06/25 01:07:17;;;;;;;4.43;0.90;;;;;;;;;;5074046;28;20032;-47
2021/06/25 01:09:44;;;;;;;7.65;0.63;;;;;;;;;;5073786;28;20400;-46
2021/06/25 01:12:10;;;;;;;0.60;0.60;;;;;;;;;;5073075;28;20115;-47
2021/06/25 01:14:38;;;;;;;0.50;0.50;;;;;;;;;;5074185;28;20355;-47
2021/06/25 01:17:06;;;;;;;0.50;0.50;;;;;;;;;;5073215;28;20062;-47
2021/06/25 01:19:32;;;;;;;0.50;0.50;;;;;;;;;;5073595;28;20039;-46
2021/06/25 01:21:58;;;;;;;0.73;0.60;;;;;;;;;;5073534;28;20074;-47
2021/06/25 01:24:25;;;;;;;0.55;0.55;;;;;;;;;;5073445;28;20074;-47
2021/06/25 01:26:51;;;;;;;0.50;0.50;;;;;;;;;;5074031;28;20024;-47
2021/06/25 01:29:18;;;;;;;1.08;0.50;;;;;;;;;;5073582;28;20056;-47
2021/06/25 01:31:45;;;;;;;2.38;0.63;;;;;;;;;;5072392;28;20035;-47
2021/06/25 01:34:11;;;;;;;0.75;0.70;;;;;;;;;;5073806;28;20024;-47
2021/06/25 01:36:38;;;;;;;0.60;0.60;;;;;;;;;;5073419;28;20119;-48
2021/06/25 01:39:05;;;;;;;10.48;0.80;;;;;;;;;;5072704;28;20016;-47
2021/06/25 01:41:32;;;;;;;0.63;0.63;;;;;;;;;;5072436;28;20032;-47
2021/06/25 01:43:59;;;;;;;2.88;0.73;;;;;;;;;;5073000;28;20056;-47
2021/06/25 01:46:25;;;;;;;0.70;0.70;;;;;;;;;;5073524;28;20359;-47
2021/06/25 01:48:51;;;;;;;1.25;0.80;;;;;;;;;;5073380;28;20021;-47
2021/06/25 01:51:18;;;;;;;0.82;0.70;;;;;;;;;;5072837;28;20031;-47
2021/06/25 01:53:44;;;;;;;0.70;0.70;;;;;;;;;;5073309;28;20198;-47
2021/06/25 01:56:10;;;;;;;0.70;0.70;;;;;;;;;;5072812;28;20409;-47
2021/06/25 01:58:36;;;;;;;4.55;0.90;;;;;;;;;;5073113;28;20447;-47
2021/06/25 02:01:07;;;;;;;1.00;0.90;;;;;;;;;;5072487;28;20022;-47
2021/06/25 02:03:33;;;;;;;0.70;0.70;;;;;;;;;;5073192;28;20051;-47
2021/06/25 02:05:59;;;;;;;0.80;0.80;;;;;;;;;;5072994;28;20432;-47
2021/06/25 02:08:25;;;;;;;1.00;0.88;;;;;;;;;;5073300;28;20036;-47
2021/06/25 02:10:51;;;;;;;0.93;0.75;;;;;;;;;;5072178;28;20104;-47
2021/06/25 02:13:17;;;;;;;1.20;0.85;;;;;;;;;;5072497;28;20048;-47
2021/06/25 02:15:43;;;;;;;1.25;0.85;;;;;;;;;;5073044;28;20423;-47
2021/06/25 02:18:10;;;;;;;0.95;0.90;;;;;;;;;;5072632;28;20458;-47
2021/06/25 02:20:36;;;;;;;1.15;1.05;;;;;;;;;;5071991;28;20036;-47
2021/06/25 02:23:02;;;;;;;0.80;0.80;;;;;;;;;;5073070;28;20428;-47
2021/06/25 02:25:28;;;;;;;1.90;0.80;;;;;;;;;;5072703;28;20073;-47
2021/06/25 02:27:54;;;;;;;1.73;0.90;;;;;;;;;;5072386;28;20029;-47
2021/06/25 02:30:20;;;;;;;2.17;1.52;;;;;;;;;;5071980;28;20021;-47
2021/06/25 02:32:46;;;;;;;1.50;1.10;;;;;;;;;;5072688;28;20021;-47
2021/06/25 02:35:13;;;;;;;1.17;1.08;;;;;;;;;;5072928;28;20051;-47
2021/06/25 02:37:39;;;;;;;3.25;1.55;;;;;;;;;;5072703;28;20367;-47
2021/06/25 02:40:08;;;;;;;1.33;0.90;;;;;;;;;;5072130;28;20021;-47
2021/06/25 02:42:36;;;;;;;1.38;1.05;;;;;;;;;;5072046;28;20041;-47
2021/06/25 02:45:03;;;;;;;1.17;1.00;;;;;;;;;;5059821;28;20112;-47
2021/06/25 02:47:30;;;;;;;1.25;1.10;;;;;;;;;;5072975;28;20052;-47
2021/06/25 02:49:56;;;;;;;1.00;0.90;;;;;;;;;;5072297;28;20326;-47
2021/06/25 02:52:22;;;;;;;1.67;1.00;;;;;;;;;;5075702;28;20363;-47
2021/06/25 02:54:48;;;;;;;1.58;1.00;;;;;;;;;;5076233;28;20025;-47
2021/06/25 02:57:14;;;;;;;3.00;1.13;;;;;;;;;;5076241;28;20033;-47
2021/06/25 02:59:40;;;;;;;1.33;1.10;;;;;;;;;;5076430;28;20016;-47
2021/06/25 03:02:06;;;;;;;3.10;1.00;;;;;;;;;;5075634;28;20032;-47
2021/06/25 03:04:32;;;;;;;1.75;1.35;;;;;;;;;;5076294;28;20086;-47
2021/06/25 03:06:58;;;;;;;2.28;1.20;;;;;;;;;;5076426;28;20115;-47
2021/06/25 03:09:24;;;;;;;3.10;1.20;;;;;;;;;;5076017;28;20103;-47
2021/06/25 03:11:50;;;;;;;1.77;1.17;;;;;;;;;;5073922;28;20027;-47
2021/06/25 03:14:16;;;;;;;1.48;1.38;;;;;;;;;;5076267;28;20384;-47
2021/06/25 03:16:42;;;;;;;3.53;1.65;;;;;;;;;;5075808;28;20546;-47
2021/06/25 03:19:08;;;;;;;1.63;1.20;;;;;;;;;;5075754;28;20440;-47
2021/06/25 03:21:34;;;;;;;1.10;1.00;;;;;;;;;;5075460;28;20040;-47
2021/06/25 03:24:00;;;;;;;1.40;1.30;;;;;;;;;;5075673;28;20017;-47
2021/06/25 03:26:26;;;;;;;5.30;1.48;;;;;;;;;;5075580;28;20462;-47
2021/06/25 03:28:52;;;;;;;4.65;1.80;;;;;;;;;;5076201;28;20021;-47
2021/06/25 03:31:20;;;;;;;1.30;1.20;;;;;;;;;;5075513;28;20107;-47
2021/06/25 03:33:46;;;;;;;1.30;1.20;;;;;;;;;;5075823;28;20021;-47
2021/06/25 03:36:12;;;;;;;2.13;1.50;;;;;;;;;;5075577;28;20032;-47
2021/06/25 03:38:38;;;;;;;1.75;1.50;;;;;;;;;;5075674;28;20035;-47
2021/06/25 03:41:04;;;;;;;2.38;1.60;;;;;;;;;;5074579;28;20017;-46
2021/06/25 03:43:30;;;;;;;3.60;1.80;;;;;;;;;;5075740;28;20032;-47
2021/06/25 03:45:56;;;;;;;2.90;1.50;;;;;;;;;;5075868;28;20025;-47
2021/06/25 03:48:22;;;;;;;1.77;1.30;;;;;;;;;;5075910;28;20021;-47
2021/06/25 03:50:48;;;;;;;1.70;1.23;;;;;;;;;;5074383;28;20451;-47
2021/06/25 03:53:14;;;;;;;2.08;1.35;;;;;;;;;;5075626;28;20025;-47
2021/06/25 03:56:09;;;;;;;2.35;1.58;;;;;;;;;;5075275;28;20031;-47
2021/06/25 03:58:26;;;;;;;3.20;1.33;;;;;;;;;;5075378;28;20044;-47
2021/06/25 04:00:52;;;;;;;2.47;1.65;;;;;;;;;;5074422;28;20225;-47
2021/06/25 04:03:18;;;;;;;2.08;1.60;;;;;;;;;;5071499;28;20032;-47
2021/06/25 04:05:44;;;;;;;3.92;2.00;;;;;;;;;;5075319;28;20032;-46
2021/06/25 04:08:10;;;;;;;7.07;1.67;;;;;;;;;;5074994;28;20025;-47
2021/06/25 04:10:36;;;;;;;2.58;1.60;;;;;;;;;;5074522;28;20028;-47
2021/06/25 04:13:02;;;;;;;3.17;1.55;;;;;;;;;;5075036;28;20032;-47
2021/06/25 04:15:28;;;;;;;3.47;1.60;;;;;;;;;;5075069;28;20454;-47
2021/06/25 04:17:54;;;;;;;5.55;1.92;;;;;;;;;;5073737;28;20345;-47
2021/06/25 04:20:20;;;;;;;4.25;1.60;;;;;;;;;;5073743;28;20549;-47
2021/06/25 04:22:46;;;;;;;2.58;2.05;;;;;;;;;;5073713;28;20346;-47
2021/06/25 04:25:13;;;;;;;2.47;1.88;;;;;;;;;;5074492;28;20462;-47
2021/06/25 04:27:39;;;;;;;2.30;1.50;;;;;;;;;;5074842;28;20103;-47
2021/06/25 04:30:08;;;;;;;1.95;1.55;;;;;;;;;;5074044;28;20489;-47
2021/06/25 04:32:35;;;;;;;4.32;2.10;;;;;;;;;;5074742;28;20028;-47
2021/06/25 04:35:01;;;;;;;2.22;1.75;;;;;;;;;;5074732;28;20028;-47
2021/06/25 04:37:27;;;;;;;2.05;1.50;;;;;;;;;;5073590;28;20119;-47
2021/06/25 04:39:53;;;;;;;7.20;2.38;;;;;;;;;;5073971;28;20029;-47
2021/06/25 04:42:19;;;;;;;7.45;2.28;;;;;;;;;;5073874;28;20028;-47
2021/06/25 04:44:45;;;;;;;2.50;1.80;;;;;;;;;;5073371;28;20485;-47
2021/06/25 04:47:11;;;;;;;2.92;1.90;;;;;;;;;;5074605;28;20032;-47
2021/06/25 04:49:40;;;;;;;5.18;2.00;;;;;;;;;;5074186;28;20016;-47
2021/06/25 04:52:07;;;;;;;2.97;2.05;;;;;;;;;;5073614;28;20025;-47
2021/06/25 04:54:33;;;;;;;6.60;2.25;;;;;;;;;;5073255;28;20490;-47
2021/06/25 04:56:59;;;;;;;3.47;1.83;;;;;;;;;;5074407;28;20517;-47
2021/06/25 04:59:26;;;;;;;2.13;1.75;;;;;;;;;;5074079;28;20024;-47
2021/06/25 05:01:52;;;;;;;4.25;2.08;;;;;;;;;;5073475;28;20178;-47
2021/06/25 05:04:18;;;;;;;3.42;1.98;;;;;;;;;;5074302;28;20017;-47
2021/06/25 05:06:46;;;;;;;2.33;1.50;;;;;;;;;;5074182;28;20024;-47
2021/06/25 05:09:12;;;;;;;2.88;1.88;;;;;;;;;;5073744;28;20024;-47
2021/06/25 05:11:38;;;;;;;2.75;1.73;;;;;;;;;;5073243;28;20523;-47
2021/06/25 05:14:04;;;;;;;3.55;2.28;;;;;;;;;;5073867;28;20117;-47
2021/06/25 05:16:30;;;;;;;2.85;2.30;;;;;;;;;;5074112;28;20040;-47
2021/06/25 05:18:57;;;;;;;4.03;2.15;;;;;;;;;;5073587;28;20413;-47
2021/06/25 05:21:23;;;;;;;3.50;2.25;;;;;;;;;;5072805;28;20463;-47
2021/06/25 05:23:49;;;;;;;5.00;2.10;;;;;;;;;;5073964;28;20024;-47
2021/06/25 05:26:15;;;;;;;4.20;2.40;;;;;;;;;;5073585;28;20078;-47
2021/06/25 05:28:42;;;;;;;3.70;2.13;;;;;;;;;;5073774;28;20093;-47
2021/06/25 05:31:08;;;;;;;5.72;2.42;;;;;;;;;;5072880;28;20123;-47
2021/06/25 05:33:34;;;;;;;3.63;2.10;;;;;;;;;;5073932;28;20431;-47
2021/06/25 05:36:00;;;;;;;3.53;2.58;;;;;;;;;;5073111;28;20039;-47
2021/06/25 05:38:26;;;;;;;3.25;2.33;;;;;;;;;;5073312;28;20032;-47
2021/06/25 05:40:52;;;;;;;6.30;2.50;;;;;;;;;;5072911;28;20023;-47
2021/06/25 05:43:18;;;;;;;7.85;2.50;;;;;;;;;;5073268;28;20032;-47
2021/06/25 05:45:44;;;;;;;3.58;2.50;;;;;;;;;;5073345;28;20024;-47
2021/06/25 05:48:10;;;;;;;4.07;2.78;;;;;;;;;;5073315;28;20429;-47
2021/06/25 05:50:38;;;;;;;4.20;2.33;;;;;;;;;;5072093;28;20050;-47
2021/06/25 05:53:04;;;;;;;3.72;2.67;;;;;;;;;;5072940;28;20348;-47
2021/06/25 05:55:30;;;;;;;4.22;2.72;;;;;;;;;;5073321;28;20020;-46
2021/06/25 05:57:57;;;;;;;4.00;2.90;;;;;;;;;;5073034;28;20040;-47
2021/06/25 06:00:23;;;;;;;3.28;2.78;;;;;;;;;;5072386;28;20025;-47
2021/06/25 06:02:49;;;;;;;4.05;3.13;;;;;;;;;;5072944;28;20028;-47
2021/06/25 06:05:15;;;;;;;4.18;2.58;;;;;;;;;;5072698;28;20044;-47
2021/06/25 06:07:41;;;;;;;3.35;2.63;;;;;;;;;;5073159;28;20036;-47
2021/06/25 06:10:09;;;;;;;6.32;3.67;;;;;;;;;;5072611;28;20028;-47
2021/06/25 06:12:35;;;;;;;9.68;3.05;;;;;;;;;;5073010;28;20024;-47
2021/06/25 06:15:02;;;;;;;5.30;3.50;;;;;;;;;;5072632;28;20032;-46
2021/06/25 06:17:28;;;;;;;4.03;2.88;;;;;;;;;;5073014;28;20040;-47
2021/06/25 06:19:55;;;;;;;3.92;2.88;;;;;;;;;;5072541;28;20119;-47
2021/06/25 06:31:12;;;;;;;8.43;3.50;;;;;;;;;;5009846;28;20088;-46
2021/06/25 06:33:44;;;;;;;4.13;2.97;;;;;;;;;;5010976;28;20032;-47
2021/06/25 06:36:14;;;;;;;4.53;3.10;;;;;;;;;;5010440;28;20417;-47
2021/06/25 06:38:42;;;;;;;4.20;3.17;;;;;;;;;;5009895;28;20108;-47
2021/06/25 06:41:08;;;;;;;5.20;2.63;;;;;;;;;;5009834;28;20030;-47
2021/06/25 06:43:37;;;;;;;13.27;3.40;;;;;;;;;;5010794;28;20037;-47
2021/06/25 06:46:03;;;;;;;4.28;2.88;;;;;;;;;;5010452;28;20037;-47
2021/06/25 06:48:29;;;;;;;6.22;3.42;;;;;;;;;;5010489;28;20046;-47
2021/06/25 06:50:55;;;;;;;6.20;3.20;;;;;;;;;;5009601;28;20492;-47
2021/06/25 06:53:21;;;;;;;5.20;3.00;;;;;;;;;;5010122;28;20026;-47
2021/06/25 06:55:47;;;;;;;8.80;3.70;;;;;;;;;;5029736;28;20110;-47
2021/06/25 06:58:13;;;;;;;5.43;3.13;;;;;;;;;;5072471;28;20033;-47
2021/06/25 07:00:40;;;;;;;4.97;3.05;;;;;;;;;;5071737;28;20111;-47
2021/06/25 07:03:06;;;;;;;5.72;3.28;;;;;;;;;;5072190;28;20050;-47
2021/06/25 07:05:32;;;;;;;5.75;3.45;;;;;;;;;;5072845;28;20021;-47
2021/06/25 07:07:58;;;;;;;4.78;3.30;;;;;;;;;;5072537;28;20066;-48
2021/06/25 07:10:24;;;;;;;5.05;3.38;;;;;;;;;;5071888;28;20020;-48
2021/06/25 07:12:50;;;;;;;6.93;3.08;;;;;;;;;;5072147;28;20470;-47
2021/06/25 07:15:16;;;;;;;3.85;2.50;;;;;;;;;;5072714;28;20032;-48
2021/06/25 07:17:42;;;;;;;6.30;3.40;;;;;;;;;;5063345;28;20036;-47
2021/06/25 07:20:08;;;;;;;5.32;3.22;;;;;;;;;;5071198;28;20078;-47
2021/06/25 07:22:34;;;;;;;4.82;2.90;;;;;;;;;;5071965;28;20032;-47
2021/06/25 07:25:00;;;;;;;8.38;2.70;;;;;;;;;;5072198;28;20328;-48
2021/06/25 07:27:26;;;;;;;4.57;2.80;;;;;;;;;;5072472;28;20134;-48
2021/06/25 07:29:52;;;;;;;3.67;2.58;;;;;;;;;;5072000;28;20025;-47
2021/06/25 07:32:18;;;;;;;5.07;2.55;;;;;;;;;;5071695;28;20039;-47
2021/06/25 07:34:44;;;;;;;4.35;2.58;;;;;;;;;;5072132;28;20055;-47
2021/06/25 07:37:11;;;;;;;3.42;2.10;;;;;;;;;;5073877;28;20040;-47
2021/06/25 07:39:37;;;;;;;2.88;1.67;;;;;;;;;;5075737;28;20055;-47
2021/06/25 07:42:03;;;;;;;1.83;1.55;;;;;;;;;;5074710;28;20032;-47
2021/06/25 07:44:29;;;;;;;2.85;1.50;;;;;;;;;;5075670;28;20415;-47
2021/06/25 07:46:55;;;;;;;2.08;1.42;;;;;;;;;;5075624;28;20028;-47
2021/06/25 07:49:21;;;;;;;2.97;1.63;;;;;;;;;;5075294;28;20027;-47
2021/06/25 07:51:48;;;;;;;2.53;2.00;;;;;;;;;;5074418;28;20058;-47
2021/06/25 07:54:14;;;;;;;2.15;1.63;;;;;;;;;;5075801;28;20067;-47
2021/06/25 07:56:40;;;;;;;2.17;1.67;;;;;;;;;;5075063;28;20371;-47
2021/06/25 07:59:06;;;;;;;4.45;1.60;;;;;;;;;;5075447;28;20451;-48
2021/06/25 08:01:33;;;;;;;3.63;1.33;;;;;;;;;;5074694;28;20359;-48
2021/06/25 08:03:59;;;;;;;2.05;1.38;;;;;;;;;;5075086;28;20032;-47
2021/06/25 08:06:25;;;;;;;1.65;1.13;;;;;;;;;;5075223;28;20042;-47
2021/06/25 08:08:51;;;;;;;1.90;1.50;;;;;;;;;;5075068;28;20455;-48
2021/06/25 08:11:17;;;;;;;1.33;1.00;;;;;;;;;;5074309;28;20025;-47
2021/06/25 08:13:43;;;;;;;1.35;1.17;;;;;;;;;;5075312;28;20359;-47
2021/06/25 08:16:09;;;;;;;1.63;1.20;;;;;;;;;;5074550;28;20444;-47
2021/06/25 08:18:35;;;;;;;0.95;0.85;;;;;;;;;;5074702;28;20039;-47
2021/06/25 08:21:01;;;;;;;2.80;1.05;;;;;;;;;;5074184;28;20082;-47
2021/06/25 08:23:27;;;;;;;0.80;0.80;;;;;;;;;;5074390;28;20020;-47
2021/06/25 08:25:53;;;;;;;0.90;0.90;;;;;;;;;;5074564;28;20104;-47
2021/06/25 08:28:19;;;;;;;1.10;0.95;;;;;;;;;;5074692;28;20526;-47
2021/06/25 08:30:45;;;;;;;1.33;1.00;;;;;;;;;;5073340;28;20021;-48
2021/06/25 08:33:11;;;;;;;1.83;1.20;;;;;;;;;;5073022;28;20032;-47
2021/06/25 08:35:37;;;;;;;1.67;1.00;;;;;;;;;;5074630;28;20021;-48
2021/06/25 08:38:03;;;;;;;1.23;1.00;;;;;;;;;;5073193;28;20040;-48
2021/06/25 08:40:29;;;;;;;0.70;0.70;;;;;;;;;;5073995;28;20025;-47
2021/06/25 08:42:55;;;;;;;0.60;0.60;;;;;;;;;;5074876;28;20124;-48
2021/06/25 08:45:23;;;;;;;1.00;0.82;;;;;;;;;;5074579;28;20048;-48
2021/06/25 08:47:50;;;;;;;1.38;0.60;;;;;;;;;;5073857;28;20028;-47
2021/06/25 08:50:18;;;;;;;0.55;0.55;;;;;;;;;;5073634;28;20021;-47
2021/06/25 08:52:48;;;;;;;1.33;0.85;;;;;;;;;;5074019;28;20035;-47
2021/06/25 08:55:14;;;;;;;;;;;;;;;;;;5074943;28;20040;-47
2021/06/25 08:57:40;;;;;;;1.08;0.80;;;;;;;;;;5073905;28;19912;-47
2021/06/25 09:00:07;;;;;;;0.75;0.63;;;;;;;;;;5073381;28;20036;-48
2021/06/25 09:02:35;;;;;;;1.00;0.80;;;;;;;;;;5074167;28;20032;-48
2021/06/25 09:05:01;;;;;;;1.45;0.90;;;;;;;;;;5074074;28;20024;-47
2021/06/25 09:07:41;;;;;;;0.80;0.80;;;;;;;;;;5074381;28;20028;-48
2021/06/25 09:10:07;;;;;;;2.65;0.80;;;;;;;;;;5073872;28;20035;-47
2021/06/25 09:12:33;;;;;;;0.68;0.68;;;;;;;;;;5073353;28;20463;-48
2021/06/25 09:15:17;;;;;;;0.77;0.77;;;;;;;;;;5073800;28;20031;-48
2021/06/25 09:17:53;;;;;;;1.08;0.98;;;;;;;;;;5073986;28;20048;-48
2021/06/25 09:20:34;;;;;;;0.65;0.65;;;;;;;;;;5073233;28;20074;-48
2021/06/25 09:23:01;;;;;;;1.20;0.82;;;;;;;;;;5073861;28;20029;-48
2021/06/25 09:25:27;;;;;;;1.15;0.82;;;;;;;;;;5073821;28;20021;-47
2021/06/25 09:27:55;;;;;;;1.15;0.93;;;;;;;;;;5073338;28;20029;-48
2021/06/25 09:30:22;;;;;;;1.05;0.93;;;;;;;;;;5073298;28;20075;-48
2021/06/25 09:32:49;;;;;;;0.77;0.77;;;;;;;;;;5073573;28;20035;-48
2021/06/25 09:35:16;;;;;;;0.60;0.60;;;;;;;;;;5073506;28;20507;-48
2021/06/25 09:37:44;;;;;;;1.20;1.08;;;;;;;;;;5073427;28;20040;-48
2021/06/25 09:40:10;;;;;;;0.98;0.90;;;;;;;;;;5072872;28;20024;-47
2021/06/25 09:42:39;;;;;;;1.50;0.95;;;;;;;;;;5073811;28;20020;-48
2021/06/25 09:45:08;;;;;;;0.50;0.50;;;;;;;;;;5073525;28;20085;-47
2021/06/25 09:47:45;;;;;;;0.60;0.60;;;;;;;;;;5073315;28;20052;-48
2021/06/25 09:50:15;;;;;;;0.60;0.60;;;;;;;;;;5072275;28;20036;-48
2021/06/25 09:52:49;;;;;;;2.35;1.00;;;;;;;;;;5073351;28;20105;-48
2021/06/25 09:55:20;;;;;;;0.93;0.82;;;;;;;;;;5073061;28;20466;-48
2021/06/25 10:03:42;;;;;;;0.93;0.90;;;;;;;;;;5073085;28;20478;-48
2021/06/25 10:06:12;;;;;;;1.05;0.82;;;;;;;;;;5073070;28;20379;-48
2021/06/25 10:08:39;;;;;;;4.53;1.00;;;;;;;;;;5073320;28;20016;-48
2021/06/25 10:11:06;;;;;;;0.82;0.80;;;;;;;;;;5072226;28;20375;-48
2021/06/25 10:13:36;;;;;;;1.00;1.00;;;;;;;;;;5073107;28;20017;-48
2021/06/25 10:16:03;;;;;;;1.90;0.93;;;;;;;;;;5072965;28;20351;-48
2021/06/25 10:18:30;;;;;;;1.10;0.73;;;;;;;;;;5070788;28;20333;-48
2021/06/25 10:20:56;;;;;;;1.00;0.90;;;;;;;;;;5072126;28;20032;-48
2021/06/25 10:23:24;;;;;;;4.15;1.13;;;;;;;;;;5066419;28;20028;-48
2021/06/25 10:25:51;;;;;;;4.20;0.90;;;;;;;;;;5072198;28;20021;-48
2021/06/25 10:28:17;;;;;;;1.52;1.30;;;;;;;;;;5072663;28;20021;-48
2021/06/25 10:30:45;;;;;;;1.13;0.90;;;;;;;;;;5072130;28;20028;-48
2021/06/25 10:33:12;;;;;;;1.25;1.10;;;;;;;;;;5072713;28;20021;-48
2021/06/25 10:35:40;;;;;;;1.95;1.27;;;;;;;;;;5070962;28;20116;-48
2021/06/25 10:38:06;;;;;;;4.55;0.95;;;;;;;;;;5072489;28;20125;-48
2021/06/25 10:40:32;;;;;;;0.73;0.73;;;;;;;;;;5071921;28;20029;-48
2021/06/25 10:43:01;;;;;;;2.60;0.88;;;;;;;;;;5072697;28;20032;-48
2021/06/25 10:45:39;;;;;;;0.70;0.70;;;;;;;;;;5072345;28;20390;-47
2021/06/25 10:48:06;;;;;;;0.70;0.70;;;;;;;;;;5072669;28;20031;-48
2021/06/25 10:50:33;;;;;;;1.10;1.00;;;;;;;;;;5071871;28;20033;-48
2021/06/25 10:53:25;;;;;;;1.40;0.93;;;;;;;;;;5072325;28;20490;-47
2021/06/25 10:56:03;;;;;;;1.27;0.88;;;;;;;;;;5068633;28;20035;-48
2021/06/25 10:58:29;;;;;;;0.88;0.85;;;;;;;;;;5072226;28;20044;-48
2021/06/25 11:01:00;;;;;;;0.88;0.88;;;;;;;;;;5071521;28;20095;-48
2021/06/25 11:03:41;;;;;;;1.27;1.10;;;;;;;;;;5072218;28;20036;-48
2021/06/25 11:06:10;;;;;;;1.13;1.02;;;;;;;;;;5072203;28;20466;-48
2021/06/25 11:08:36;;;;;;;1.23;0.90;;;;;;;;;;5072661;28;20033;-48
2021/06/25 11:11:02;;;;;;;0.73;0.73;;;;;;;;;;5058245;28;20462;-47
2021/06/25 11:13:29;;;;;;;0.82;0.82;;;;;;;;;;5055584;28;20025;-48
2021/06/25 11:15:58;;;;;;;0.98;0.93;;;;;;;;;;5055803;28;20132;-48
2021/06/25 11:18:24;;;;;;;1.00;1.00;;;;;;;;;;5056196;28;20506;-48
2021/06/25 11:20:55;;;;;;;1.13;1.00;;;;;;;;;;5055100;28;20432;-48
2021/06/25 11:23:24;;;;;;;1.10;0.95;;;;;;;;;;5056219;28;20028;-48
2021/06/25 11:25:59;;;;;;;1.45;0.93;;;;;;;;;;5056197;28;20075;-48
2021/06/25 11:28:31;;;;;;;1.17;1.10;;;;;;;;;;5055932;28;20171;-48
2021/06/25 11:31:00;;;;;;;0.80;0.80;;;;;;;;;;5054981;28;20099;-48
2021/06/25 11:33:27;;;;;;;1.50;1.00;;;;;;;;;;5055921;28;20435;-48
2021/06/25 11:35:53;;;;;;;2.10;1.10;;;;;;;;;;5056183;28;20071;-48
2021/06/25 11:38:19;;;;;;;1.10;1.00;;;;;;;;;;5055796;28;20452;-48
2021/06/25 11:40:46;;;;;;;2.67;1.63;;;;;;;;;;5054699;28;20025;-48
2021/06/25 11:43:13;;;;;;;1.23;0.90;;;;;;;;;;5055891;28;20053;-48
2021/06/25 11:45:39;;;;;;;5.40;1.20;;;;;;;;;;5055929;28;20021;-48
2021/06/25 11:48:05;;;;;;;1.20;1.10;;;;;;;;;;5055543;28;20392;-48
2021/06/25 11:50:37;;;;;;;0.90;0.90;;;;;;;;;;5054855;28;20440;-48
2021/06/25 11:53:04;;;;;;;1.25;1.00;;;;;;;;;;5055976;28;20021;-48
2021/06/25 11:55:30;;;;;;;1.00;1.00;;;;;;;;;;5054998;28;20115;-48
2021/06/25 11:57:57;;;;;;;1.20;1.00;;;;;;;;;;5055341;28;20515;-48
2021/06/25 12:00:24;;;;;;;1.38;1.10;;;;;;;;;;5064162;28;20148;-48
2021/06/25 12:02:52;;;;;;;5.57;1.10;;;;;;;;;;5075700;28;20052;-47
2021/06/25 12:05:18;;;;;;;1.42;1.10;;;;;;;;;;5075426;28;20081;-48
2021/06/25 12:07:44;;;;;;;4.63;1.08;;;;;;;;;;5075188;28;20021;-48
2021/06/25 12:10:11;;;;;;;7.00;1.20;;;;;;;;;;5075045;28;20037;-48
2021/06/25 12:12:38;;;;;;;1.10;0.85;;;;;;;;;;5075385;28;20029;-48
2021/06/25 12:15:14;;;;;;;0.98;0.88;;;;;;;;;;5075313;28;20069;-48
2021/06/25 12:17:50;;;;;;;1.30;0.90;;;;;;;;;;5075103;28;20410;-48
2021/06/25 12:20:19;;;;;;;2.25;1.08;;;;;;;;;;5073896;28;20032;-49
2021/06/25 12:23:12;;;;;;;0.87;0.87;;;;;;;;;;5074826;28;20024;-47
2021/06/25 12:25:46;;;;;;;1.55;1.00;;;;;;;;;;5072137;28;21118;-48
2021/06/25 12:28:16;;;;;;;1.90;1.13;;;;;;;;;;5074913;28;20529;-47
2021/06/25 12:30:44;;;;;;;2.20;1.23;;;;;;;;;;5073681;28;20059;-48
2021/06/25 12:33:10;;;;;;;1.77;1.30;;;;;;;;;;5075041;28;20048;-48
2021/06/25 12:35:38;;;;;;;2.33;1.23;;;;;;;;;;5074443;28;20516;-48
2021/06/25 12:38:08;;;;;;;2.90;1.45;;;;;;;;;;5074645;28;20135;-48
2021/06/25 12:40:37;;;;;;;1.23;1.02;;;;;;;;;;5074137;28;20069;-49
2021/06/25 12:43:03;;;;;;;1.17;1.08;;;;;;;;;;5074588;28;20033;-48
2021/06/25 12:45:47;;;;;;;1.38;1.27;;;;;;;;;;5074276;28;20406;-48
2021/06/25 12:48:21;;;;;;;1.17;1.10;;;;;;;;;;5074889;28;20063;-48
2021/06/25 12:50:48;;;;;;;1.33;1.20;;;;;;;;;;5073827;28;20025;-48
2021/06/25 12:53:15;;;;;;;1.10;1.00;;;;;;;;;;5074521;28;20455;-48
2021/06/25 12:55:44;;;;;;;1.52;1.05;;;;;;;;;;5074309;28;20025;-48
2021/06/25 12:58:11;;;;;;;1.83;1.20;;;;;;;;;;5074315;28;20467;-48
2021/06/25 13:00:37;;;;;;;1.02;0.93;;;;;;;;;;5073673;28;20047;-48
2021/06/25 13:03:03;;;;;;;2.92;1.63;;;;;;;;;;5074225;28;20024;-48
2021/06/25 13:05:36;;;;;;;1.08;0.98;;;;;;;;;;5074099;28;20467;-48
2021/06/25 13:08:02;;;;;;;1.27;0.80;;;;;;;;;;5074025;28;20266;-48
2021/06/25 13:10:28;;;;;;;1.60;1.10;;;;;;;;;;5073350;28;20332;-48
2021/06/25 13:12:55;;;;;;;0.90;0.90;;;;;;;;;;5074214;28;20048;-48
2021/06/25 13:15:21;;;;;;;1.25;1.15;;;;;;;;;;5074116;28;20339;-48
2021/06/25 13:17:50;;;;;;;1.38;1.27;;;;;;;;;;5073953;28;20037;-48
2021/06/25 13:20:25;;;;;;;1.30;1.20;;;;;;;;;;5072991;28;20095;-48
2021/06/25 13:23:01;;;;;;;1.60;1.45;;;;;;;;;;5073301;28;20032;-48
2021/06/25 13:25:27;;;;;;;3.03;1.60;;;;;;;;;;5074169;28;20028;-48
2021/06/25 13:27:53;;;;;;;1.90;1.70;;;;;;;;;;5073862;28;20102;-48
2021/06/25 13:30:29;;;;;;;1.73;1.50;;;;;;;;;;5072862;28;20039;-48
2021/06/25 13:33:00;;;;;;;8.35;1.45;;;;;;;;;;5073641;28;20025;-48
2021/06/25 13:35:42;;;;;;;1.80;1.70;;;;;;;;;;5073146;28;20032;-48
2021/06/25 13:38:20;;;;;;;2.88;1.80;;;;;;;;;;5073487;28;20041;-48
2021/06/25 13:40:47;;;;;;;2.80;1.63;;;;;;;;;;5073040;28;20033;-48
2021/06/25 13:43:15;;;;;;;2.97;2.20;;;;;;;;;;5073503;28;20029;-48
2021/06/25 13:45:41;;;;;;;4.85;2.13;;;;;;;;;;5067990;28;20451;-48
2021/06/25 13:48:20;;;;;;;3.05;2.60;;;;;;;;;;5072469;28;20452;-48
2021/06/25 13:50:47;;;;;;;3.85;2.33;;;;;;;;;;5072308;28;20332;-48
2021/06/25 13:53:27;;;;;;;3.10;2.08;;;;;;;;;;5073414;28;20036;-48
2021/06/25 13:56:00;;;;;;;5.25;2.95;;;;;;;;;;5072670;28;20037;-48
2021/06/25 13:58:26;;;;;;;4.10;3.08;;;;;;;;;;5073461;28;20047;-48
2021/06/25 14:01:00;;;;;;;4.28;2.60;;;;;;;;;;5072560;28;20074;-49
2021/06/25 14:03:30;;;;;;;5.65;3.00;;;;;;;;;;5073001;28;20020;-48
2021/06/25 14:06:02;;;;;;;6.10;3.15;;;;;;;;;;5072999;28;20466;-48
2021/06/25 14:08:38;;;;;;;5.25;3.22;;;;;;;;;;5072916;28;20033;-49
2021/06/25 14:11:09;;;;;;;5.55;3.53;;;;;;;;;;5072342;28;20024;-48
2021/06/25 14:13:36;;;;;;;4.53;3.00;;;;;;;;;;5073063;28;20509;-48
2021/06/25 14:16:12;;;;;;;4.28;2.80;;;;;;;;;;5073033;28;20355;-48
2021/06/25 14:18:38;;;;;;;4.32;3.30;;;;;;;;;;5072696;28;20059;-48
2021/06/25 14:21:04;;;;;;;8.32;3.42;;;;;;;;;;5071569;28;20036;-48
2021/06/25 14:23:30;;;;;;;4.43;3.03;;;;;;;;;;5072901;28;20031;-48
2021/06/25 14:25:56;;;;;;;6.97;3.15;;;;;;;;;;5072682;28;20343;-47
2021/06/25 14:28:26;;;;;;;3.40;3.10;;;;;;;;;;5072770;28;20024;-48
2021/06/25 14:30:52;;;;;;;4.20;3.03;;;;;;;;;;5072102;28;20024;-48
2021/06/25 14:33:19;;;;;;;13.38;3.05;;;;;;;;;;5072037;28;20025;-47
2021/06/25 14:35:45;;;;;;;5.68;2.80;;;;;;;;;;5072200;28;20474;-48
2021/06/25 14:38:11;;;;;;;4.43;3.20;;;;;;;;;;5072039;28;20033;-48
2021/06/25 14:40:37;;;;;;;4.28;2.63;;;;;;;;;;5072112;28;20020;-48
2021/06/25 14:43:03;;;;;;;4.63;2.83;;;;;;;;;;5072614;28;20025;-48
2021/06/25 14:45:29;;;;;;;3.65;2.70;;;;;;;;;;5072589;28;20051;-48
2021/06/25 14:47:55;;;;;;;4.18;2.40;;;;;;;;;;5074007;28;20561;-48
2021/06/25 14:50:21;;;;;;;5.15;2.58;;;;;;;;;;5075656;28;20028;-48
2021/06/25 14:52:47;;;;;;;6.07;2.97;;;;;;;;;;5075102;28;20031;-48
2021/06/25 14:55:13;;;;;;;4.25;2.83;;;;;;;;;;5075911;28;20135;-48
2021/06/25 14:57:39;;;;;;;3.92;2.50;;;;;;;;;;5076427;28;20040;-48
2021/06/25 15:00:06;;;;;;;4.47;2.42;;;;;;;;;;5075811;28;20058;-48